Time;durP1;ratioP1;P1;durP2;ratioP2;P2;SDS_P1;SDS_P2;PMS_P1;PMS_P2;Temp;Humidity;BMP_temperature;BMP_pressure;BME280_temperature;BME280_humidity;BME280_pressure;Samples;Min_cycle;Max_cycle;Signal;HPM_P1;HPM_P2
2022/03/19 00:00:11;;;;;;;13.63;6.27;;;7.30;99.90;;;;;;5041682;28;20221;-94
2022/03/19 00:02:37;;;;;;;14.70;5.87;;;6.70;99.90;;;;;;5042983;28;20183;-94
2022/03/19 00:05:02;;;;;;;11.47;6.00;;;7.00;99.90;;;;;;5061285;28;20191;-94
2022/03/19 00:07:29;;;;;;;8.67;5.60;;;6.60;99.90;;;;;;5043251;28;20298;-94
2022/03/19 00:09:56;;;;;;;12.43;5.97;;;6.50;99.90;;;;;;5060958;28;20186;-94
2022/03/19 00:12:21;;;;;;;11.67;6.27;;;7.10;99.90;;;;;;5060952;28;20187;-94
2022/03/19 00:14:47;;;;;;;7.90;5.60;;;7.30;99.90;;;;;;5061364;28;20268;-94
2022/03/19 00:17:13;;;;;;;11.53;6.23;;;6.30;99.90;;;;;;5043201;28;20199;-94
2022/03/19 00:19:39;;;;;;;11.90;6.63;;;6.30;99.90;;;;;;5042745;28;20167;-94
2022/03/19 00:22:06;;;;;;;9.90;6.17;;;6.30;99.90;;;;;;5043024;28;20229;-94
2022/03/19 00:24:32;;;;;;;7.07;5.37;;;7.20;99.90;;;;;;5042569;28;20241;-94
2022/03/19 00:26:57;;;;;;;10.90;5.87;;;6.20;99.90;;;;;;5043084;28;20191;-94
2022/03/19 00:29:23;;;;;;;13.00;6.40;;;6.10;99.90;;;;;;5041355;28;20576;-94
2022/03/19 00:31:49;;;;;;;10.20;6.63;;;6.20;99.90;;;;;;5040407;28;20187;-94
2022/03/19 00:34:14;;;;;;;9.13;5.90;;;5.90;99.90;;;;;;5040374;28;20176;-94
2022/03/19 00:36:40;;;;;;;9.67;6.10;;;6.40;99.90;;;;;;5040471;28;20685;-94
2022/03/19 00:39:06;;;;;;;7.23;5.77;;;5.70;99.90;;;;;;5042790;28;20229;-94
2022/03/19 00:41:31;;;;;;;7.63;5.97;;;5.30;99.90;;;;;;5078594;28;20632;-94
2022/03/19 00:43:57;;;;;;;8.93;6.53;;;6.20;99.90;;;;;;5059948;28;20625;-95
2022/03/19 00:46:22;;;;;;;10.13;6.33;;;5.60;99.90;;;;;;5060309;28;20209;-94
2022/03/19 00:48:48;;;;;;;8.30;5.67;;;5.50;99.90;;;;;;5060232;28;20182;-94
2022/03/19 00:51:14;;;;;;;6.90;5.63;;;5.40;99.90;;;;;;5078501;28;20274;-94
2022/03/19 00:53:40;;;;;;;8.53;5.30;;;5.00;99.90;;;;;;5059636;28;20182;-94
2022/03/19 00:56:05;;;;;;;9.57;6.17;;;5.30;99.90;;;;;;5060854;28;20211;-94
2022/03/19 00:58:31;;;;;;;10.07;6.20;;;5.30;99.90;;;;;;5068511;28;20321;-94
2022/03/19 01:00:57;;;;;;;9.43;6.47;;;5.40;99.90;;;;;;5060935;28;20179;-94
2022/03/19 01:03:22;;;;;;;9.57;6.30;;;5.30;99.90;;;;;;5078460;28;20191;-94
2022/03/19 01:05:48;;;;;;;9.33;6.67;;;5.90;99.90;;;;;;5066523;28;20688;-94
2022/03/19 01:08:14;;;;;;;10.53;6.97;;;6.40;99.90;;;;;;5064941;28;20178;-94
2022/03/19 01:10:40;;;;;;;10.83;6.53;;;5.10;99.90;;;;;;5064930;28;20232;-94
2022/03/19 01:13:06;;;;;;;12.60;6.33;;;4.80;99.90;;;;;;5070607;28;20182;-94
2022/03/19 01:15:33;;;;;;;12.17;7.00;;;5.40;99.90;;;;;;5090279;28;20214;-94
2022/03/19 01:18:01;;;;;;;12.43;6.60;;;4.90;99.90;;;;;;5072407;28;20179;-94
2022/03/19 01:20:27;;;;;;;9.97;6.13;;;4.70;99.90;;;;;;5091199;28;20175;-94
2022/03/19 01:22:52;;;;;;;14.43;6.60;;;4.80;99.90;;;;;;5064330;28;20575;-93
2022/03/19 01:25:19;;;;;;;10.80;7.00;;;5.00;99.90;;;;;;5081181;28;20191;-94
2022/03/19 01:27:47;;;;;;;11.10;6.77;;;5.20;99.90;;;;;;5062411;28;20175;-94
2022/03/19 01:30:16;;;;;;;10.67;7.10;;;5.40;99.90;;;;;;5062791;28;20589;-93
2022/03/19 01:32:42;;;;;;;12.50;6.47;;;5.20;99.90;;;;;;5061393;28;20201;-94
2022/03/19 01:35:09;;;;;;;11.17;7.57;;;4.60;99.90;;;;;;5079927;28;20195;-94
2022/03/19 01:37:35;;;;;;;10.13;6.90;;;4.60;99.90;;;;;;5079712;28;20564;-94
2022/03/19 01:40:01;;;;;;;9.57;7.30;;;4.90;99.90;;;;;;5060815;28;20246;-93
2022/03/19 01:42:32;;;;;;;13.97;7.30;;;4.60;99.90;;;;;;5060027;28;20182;-93
2022/03/19 01:44:59;;;;;;;9.70;7.57;;;4.50;99.90;;;;;;5077426;28;20205;-94
2022/03/19 01:47:30;;;;;;;13.23;8.27;;;4.50;99.90;;;;;;5059813;28;20198;-93
2022/03/19 01:49:57;;;;;;;12.63;7.53;;;4.40;99.90;;;;;;5059803;28;20175;-94
2022/03/19 01:52:25;;;;;;;10.57;7.40;;;4.50;99.90;;;;;;5059506;28;20185;-94
2022/03/19 01:54:52;;;;;;;17.03;7.57;;;4.80;99.90;;;;;;5059290;28;20269;-94
2022/03/19 01:57:23;;;;;;;11.50;7.60;;;5.50;99.90;;;;;;5059862;28;20241;-94
2022/03/19 01:59:50;;;;;;;17.03;8.07;;;4.40;99.90;;;;;;5059529;28;20170;-94
2022/03/19 02:02:16;;;;;;;13.57;8.50;;;4.40;99.90;;;;;;5058849;28;20167;-93
2022/03/19 02:04:42;;;;;;;11.00;7.60;;;4.50;99.90;;;;;;5058753;28;20229;-94
2022/03/19 02:07:10;;;;;;;10.17;7.57;;;4.50;99.90;;;;;;5058816;28;20266;-93
2022/03/19 02:09:37;;;;;;;13.00;8.47;;;4.40;99.90;;;;;;5059714;28;20632;-93
2022/03/19 02:12:04;;;;;;;15.30;8.57;;;4.40;99.90;;;;;;5058699;28;20223;-94
2022/03/19 02:14:33;;;;;;;13.47;8.03;;;4.40;99.90;;;;;;5077064;28;20641;-94
2022/03/19 02:17:01;;;;;;;11.20;8.13;;;4.40;99.90;;;;;;5058760;28;20546;-94
2022/03/19 02:19:26;;;;;;;15.90;8.53;;;5.80;99.90;;;;;;5059228;28;20167;-94
2022/03/19 02:21:52;;;;;;;16.97;8.67;;;4.20;99.90;;;;;;5058754;28;20171;-93
2022/03/19 02:27:02;;;;;;;15.67;8.77;;;4.40;99.90;;;;;;5076835;28;20197;-94
2022/03/19 02:29:28;;;;;;;11.83;8.23;;;4.40;99.90;;;;;;5076520;28;20641;-94
2022/03/19 02:31:57;;;;;;;11.60;8.20;;;4.40;99.90;;;;;;5058100;28;20238;-94
2022/03/19 02:34:23;;;;;;;12.97;9.00;;;4.40;99.90;;;;;;5057996;28;20175;-93
2022/03/19 02:36:49;;;;;;;12.07;8.37;;;4.50;99.90;;;;;;5058956;28;20301;-94
2022/03/19 02:39:30;;;;;;;16.17;8.80;;;4.40;99.90;;;;;;5062450;28;20332;-93
2022/03/19 02:41:58;;;;;;;14.63;9.00;;;4.40;99.90;;;;;;5064516;28;20262;-93
2022/03/19 02:44:24;;;;;;;14.33;8.63;;;4.40;99.90;;;;;;5058223;28;20171;-93
2022/03/19 02:46:52;;;;;;;15.80;8.20;;;4.70;99.90;;;;;;5057911;28;20286;-93
2022/03/19 02:49:19;;;;;;;15.13;8.30;;;4.50;99.90;;;;;;5058379;28;20178;-93
2022/03/19 02:51:49;;;;;;;15.03;8.53;;;4.50;99.90;;;;;;5057966;28;20236;-94
2022/03/19 02:54:18;;;;;;;12.43;8.30;;;4.50;99.90;;;;;;5063664;28;20193;-94
2022/03/19 02:56:45;;;;;;;12.77;8.47;;;5.60;99.90;;;;;;5096272;28;20549;-93
2022/03/19 02:59:22;;;;;;;13.53;8.03;;;5.30;99.90;;;;;;5071187;28;20174;-93
2022/03/19 03:01:52;;;;;;;12.47;8.57;;;4.80;99.90;;;;;;5084352;28;20159;-94
2022/03/19 03:04:19;;;;;;;15.00;8.23;;;5.10;99.90;;;;;;5075991;28;20544;-93
2022/03/19 03:06:46;;;;;;;13.70;8.43;;;4.90;99.90;;;;;;5057919;28;20191;-93
2022/03/19 03:09:13;;;;;;;15.20;8.63;;;4.50;99.90;;;;;;5057960;28;20179;-93
2022/03/19 03:11:39;;;;;;;12.67;9.47;;;4.80;99.90;;;;;;5058358;28;20171;-94
2022/03/19 03:14:06;;;;;;;13.73;9.63;;;4.60;99.90;;;;;;5057851;28;20633;-94
2022/03/19 03:16:33;;;;;;;13.33;8.67;;;4.60;99.90;;;;;;5076254;28;20221;-94
2022/03/19 03:19:02;;;;;;;16.77;8.90;;;4.70;99.90;;;;;;5057590;28;20658;-93
2022/03/19 03:21:28;;;;;;;14.70;9.50;;;5.00;99.90;;;;;;5075513;28;20261;-94
2022/03/19 03:23:55;;;;;;;21.60;9.23;;;5.50;99.90;;;;;;5057979;28;20499;-94
2022/03/19 03:26:21;;;;;;;11.97;8.63;;;5.10;99.90;;;;;;5057851;28;20217;-94
2022/03/19 03:28:47;;;;;;;14.27;9.10;;;4.80;99.90;;;;;;5057711;28;20678;-93
2022/03/19 03:31:12;;;;;;;13.63;9.40;;;5.40;99.90;;;;;;5057598;28;20175;-93
2022/03/19 03:33:39;;;;;;;12.20;8.87;;;4.80;99.90;;;;;;5057265;28;20715;-94
2022/03/19 03:36:05;;;;;;;14.60;9.00;;;4.50;99.90;;;;;;5057086;28;20207;-94
2022/03/19 03:38:31;;;;;;;15.23;9.20;;;4.80;99.90;;;;;;5057480;28;20213;-93
2022/03/19 03:40:57;;;;;;;17.20;9.30;;;4.90;99.90;;;;;;5075230;28;20741;-94
2022/03/19 03:43:22;;;;;;;15.13;8.70;;;4.50;99.90;;;;;;5075847;28;20262;-93
2022/03/19 03:45:48;;;;;;;14.00;9.63;;;5.50;99.90;;;;;;5057690;28;20323;-94
2022/03/19 03:48:14;;;;;;;14.13;8.87;;;4.80;99.90;;;;;;5057278;28;20182;-94
2022/03/19 03:50:41;;;;;;;13.73;9.30;;;4.80;99.90;;;;;;5057931;28;20660;-94
2022/03/19 03:53:07;;;;;;;18.67;9.07;;;4.80;99.90;;;;;;5057971;28;20198;-94
2022/03/19 03:55:34;;;;;;;13.83;10.43;;;4.80;99.90;;;;;;5057409;28;20211;-94
2022/03/19 03:58:01;;;;;;;17.33;9.83;;;5.90;99.90;;;;;;5057995;28;20192;-94
2022/03/19 04:00:27;;;;;;;15.83;10.10;;;5.60;99.90;;;;;;5058375;28;20465;-94
2022/03/19 04:02:53;;;;;;;18.40;9.63;;;4.90;99.90;;;;;;5075673;28;20175;-93
2022/03/19 04:05:19;;;;;;;20.43;9.40;;;4.90;99.90;;;;;;5059644;28;20202;-94
2022/03/19 04:07:45;;;;;;;15.93;9.57;;;4.90;99.90;;;;;;5061423;28;20288;-93
2022/03/19 04:10:12;;;;;;;12.80;9.03;;;4.90;99.90;;;;;;5079331;28;20171;-93
2022/03/19 04:12:37;;;;;;;13.27;8.40;;;4.80;99.90;;;;;;5078949;28;20185;-93
2022/03/19 04:15:05;;;;;;;13.60;9.10;;;4.80;99.90;;;;;;5061015;28;20302;-94
2022/03/19 04:17:30;;;;;;;16.27;9.53;;;4.80;99.90;;;;;;5060847;28;20195;-94
2022/03/19 04:19:56;;;;;;;17.67;10.03;;;4.80;99.90;;;;;;5060740;28;20182;-94
2022/03/19 04:22:21;;;;;;;12.13;9.13;;;4.80;99.90;;;;;;5061225;28;20189;-94
2022/03/19 04:24:47;;;;;;;17.33;9.43;;;5.00;99.90;;;;;;5061301;28;20181;-94
2022/03/19 04:27:14;;;;;;;15.57;9.77;;;4.70;99.90;;;;;;5060877;28;20187;-93
2022/03/19 04:29:42;;;;;;;17.37;9.63;;;4.70;99.90;;;;;;5078650;28;20274;-94
2022/03/19 04:32:08;;;;;;;16.27;9.27;;;5.00;99.90;;;;;;5060731;28;20171;-94
2022/03/19 04:34:34;;;;;;;13.17;9.53;;;5.10;99.90;;;;;;5079131;28;20659;-93
2022/03/19 04:37:00;;;;;;;13.17;9.67;;;5.70;99.90;;;;;;5060410;28;20205;-94
2022/03/19 04:39:26;;;;;;;16.67;9.50;;;4.90;99.90;;;;;;5061197;28;20201;-93
2022/03/19 04:41:51;;;;;;;13.80;9.57;;;5.80;99.90;;;;;;5060885;28;20242;-93
2022/03/19 04:44:17;;;;;;;12.63;9.30;;;4.60;99.90;;;;;;5060116;28;20274;-94
2022/03/19 04:46:43;;;;;;;12.47;8.90;;;4.70;99.90;;;;;;5061409;28;20205;-94
2022/03/19 04:49:09;;;;;;;15.93;9.37;;;4.70;99.90;;;;;;5064965;28;20191;-93
2022/03/19 04:51:37;;;;;;;16.07;10.63;;;4.60;99.90;;;;;;5069073;28;20259;-94
2022/03/19 04:54:03;;;;;;;16.17;10.10;;;4.90;99.90;;;;;;5068546;28;20305;-94
2022/03/19 04:56:30;;;;;;;17.40;9.43;;;4.60;99.90;;;;;;5069703;28;20210;-95
2022/03/19 04:58:58;;;;;;;13.60;9.23;;;4.90;99.90;;;;;;5082189;28;20223;-94
2022/03/19 05:01:28;;;;;;;20.83;10.07;;;4.80;99.90;;;;;;5060259;28;20211;-94
2022/03/19 05:03:54;;;;;;;14.40;9.73;;;4.70;99.90;;;;;;5059965;28;20260;-93
2022/03/19 05:06:21;;;;;;;14.53;10.10;;;4.60;99.90;;;;;;5060131;28;20239;-94
2022/03/19 05:08:47;;;;;;;13.30;9.77;;;4.60;99.90;;;;;;5060049;28;20529;-94
2022/03/19 05:11:12;;;;;;;13.63;9.77;;;4.70;99.90;;;;;;5060010;28;20175;-94
2022/03/19 05:13:43;;;;;;;19.67;9.70;;;4.70;99.90;;;;;;5078865;28;20182;-94
2022/03/19 05:16:09;;;;;;;18.17;9.50;;;4.70;99.90;;;;;;5059828;28;20210;-94
2022/03/19 05:18:35;;;;;;;15.90;10.00;;;4.70;99.90;;;;;;5060394;28;20182;-94
2022/03/19 05:21:01;;;;;;;17.90;9.63;;;4.80;99.90;;;;;;5060274;28;20194;-94
2022/03/19 05:23:41;;;;;;;19.17;10.93;;;4.70;99.90;;;;;;5062622;28;20170;-93
2022/03/19 05:26:10;;;;;;;20.07;10.20;;;4.60;99.90;;;;;;5082845;28;20186;-96
2022/03/19 05:28:40;;;;;;;19.23;10.57;;;4.70;99.90;;;;;;5082882;28;20238;-96
2022/03/19 05:31:09;;;;;;;15.33;9.00;;;5.10;99.90;;;;;;5100018;28;20230;-95
2022/03/19 05:36:33;;;;;;;12.93;9.30;;;4.00;99.90;;;;;;5096415;28;20229;-94
2022/03/19 05:39:00;;;;;;;14.87;9.57;;;4.80;99.90;;;;;;5076783;28;20170;-94
2022/03/19 05:41:28;;;;;;;14.30;9.47;;;5.40;99.90;;;;;;5079050;28;20167;-94
2022/03/19 05:43:56;;;;;;;19.87;10.63;;;4.60;99.90;;;;;;5080089;28;20182;-94
2022/03/19 05:46:25;;;;;;;15.50;9.47;;;4.80;99.90;;;;;;5079359;28;20206;-94
2022/03/19 05:48:51;;;;;;;20.40;10.17;;;4.30;99.90;;;;;;5092933;28;20171;-92
2022/03/19 05:51:16;;;;;;;16.40;9.70;;;5.30;99.90;;;;;;5060061;28;20244;-93
2022/03/19 05:53:43;;;;;;;16.67;8.97;;;5.20;99.90;;;;;;5077557;28;20229;-92
2022/03/19 05:56:09;;;;;;;16.03;8.93;;;4.90;99.90;;;;;;5077400;28;20241;-93
2022/03/19 05:58:38;;;;;;;19.93;9.97;;;4.80;99.90;;;;;;5059280;28;20568;-92
2022/03/19 06:01:03;;;;;;;13.57;9.60;;;4.80;99.90;;;;;;5058381;28;20179;-93
2022/03/19 06:03:29;;;;;;;14.40;9.73;;;4.90;99.90;;;;;;5058614;28;20305;-93
2022/03/19 06:05:54;;;;;;;16.20;10.07;;;4.90;99.90;;;;;;5077081;28;20580;-93
2022/03/19 06:08:20;;;;;;;16.90;9.30;;;4.90;99.90;;;;;;5059361;28;20252;-92
2022/03/19 06:10:46;;;;;;;17.27;9.30;;;4.90;99.90;;;;;;5058912;28;20189;-93
2022/03/19 06:13:11;;;;;;;14.60;9.43;;;5.20;99.90;;;;;;5059228;28;20178;-93
2022/03/19 06:15:37;;;;;;;12.93;9.20;;;5.00;99.90;;;;;;5059804;28;20676;-93
2022/03/19 06:18:02;;;;;;;13.53;9.23;;;5.00;99.90;;;;;;5058555;28;20212;-92
2022/03/19 06:20:28;;;;;;;15.70;9.27;;;5.50;99.90;;;;;;5083608;28;20182;-93
2022/03/19 06:22:53;;;;;;;16.33;9.63;;;4.80;99.90;;;;;;5066900;28;20178;-93
2022/03/19 06:25:22;;;;;;;13.53;8.97;;;5.10;99.90;;;;;;5067008;28;20264;-94
2022/03/19 06:27:48;;;;;;;11.10;8.10;;;5.40;99.90;;;;;;5062637;28;20167;-93
2022/03/19 06:30:13;;;;;;;14.37;10.47;;;5.20;99.90;;;;;;5060931;28;20234;-90
2022/03/19 06:32:41;;;;;;;17.03;9.77;;;5.10;99.90;;;;;;5073954;28;20207;-90
2022/03/19 06:35:08;;;;;;;14.03;9.17;;;5.10;99.90;;;;;;5059538;28;20202;-90
2022/03/19 06:37:34;;;;;;;15.50;9.77;;;5.10;99.90;;;;;;5060188;28;20195;-90
2022/03/19 06:40:06;;;;;;;12.93;9.87;;;5.10;99.90;;;;;;5050018;28;20206;-91
2022/03/19 06:42:33;;;;;;;16.27;9.73;;;5.20;99.90;;;;;;5061552;28;20183;-91
2022/03/19 06:44:58;;;;;;;15.70;8.73;;;5.90;99.90;;;;;;5047196;28;20180;-91
2022/03/19 06:47:24;;;;;;;16.50;8.73;;;5.30;99.90;;;;;;5054464;28;20566;-91
2022/03/19 06:49:50;;;;;;;14.07;9.00;;;5.40;99.90;;;;;;5036991;28;20183;-91
2022/03/19 06:52:16;;;;;;;14.73;9.23;;;5.40;99.90;;;;;;5036360;28;20180;-91
2022/03/19 06:54:41;;;;;;;16.27;8.33;;;5.50;99.90;;;;;;5055538;28;20171;-91
2022/03/19 06:57:07;;;;;;;18.27;8.90;;;5.60;99.90;;;;;;5038390;28;20208;-91
2022/03/19 06:59:33;;;;;;;12.93;8.73;;;5.60;99.90;;;;;;5037571;28;20225;-90
2022/03/19 07:01:59;;;;;;;14.57;8.70;;;5.70;99.90;;;;;;5056129;28;20175;-91
2022/03/19 07:04:27;;;;;;;16.00;8.57;;;5.70;99.90;;;;;;5058509;28;20180;-93
2022/03/19 07:06:52;;;;;;;17.50;9.27;;;5.80;99.90;;;;;;5041667;28;20259;-93
2022/03/19 07:09:18;;;;;;;13.67;8.47;;;6.30;99.90;;;;;;5038542;28;20210;-93
2022/03/19 07:11:44;;;;;;;15.30;9.70;;;5.90;99.90;;;;;;5039215;28;20172;-93
2022/03/19 07:14:09;;;;;;;16.20;8.47;;;6.00;99.90;;;;;;5038967;28;20168;-93
2022/03/19 07:16:35;;;;;;;14.00;8.67;;;6.00;99.90;;;;;;5038290;28;20207;-93
2022/03/19 07:19:00;;;;;;;16.07;8.80;;;6.00;99.90;;;;;;5056569;28;20225;-93
2022/03/19 07:21:26;;;;;;;13.30;8.80;;;6.10;99.90;;;;;;5056455;28;20557;-93
2022/03/19 07:23:52;;;;;;;14.57;8.47;;;6.20;99.90;;;;;;5039046;28;20183;-93
2022/03/19 07:26:17;;;;;;;16.20;9.10;;;6.20;99.90;;;;;;5038838;28;20199;-93
2022/03/19 07:28:43;;;;;;;15.63;8.27;;;6.20;99.90;;;;;;5038898;28;20274;-94
2022/03/19 07:31:08;;;;;;;11.87;8.20;;;6.70;99.90;;;;;;5039129;28;20183;-93
2022/03/19 07:33:34;;;;;;;14.10;8.20;;;6.30;99.90;;;;;;5038955;28;20179;-93
2022/03/19 07:36:04;;;;;;;15.63;8.10;;;6.40;99.90;;;;;;5038373;28;20236;-94
2022/03/19 07:38:33;;;;;;;20.93;8.17;;;6.50;99.90;;;;;;5038550;28;20224;-93
2022/03/19 07:43:43;;;;;;;17.63;8.33;;;6.60;99.90;;;;;;5061530;28;20244;-94
2022/03/19 07:46:10;;;;;;;16.97;8.37;;;6.60;99.90;;;;;;5040793;28;20199;-93
2022/03/19 07:48:35;;;;;;;15.83;8.00;;;6.70;99.90;;;;;;5042863;28;20184;-92
2022/03/19 07:51:01;;;;;;;11.80;7.63;;;6.80;99.90;;;;;;5038659;28;20619;-93
2022/03/19 07:53:27;;;;;;;16.73;8.17;;;6.90;99.90;;;;;;5044383;28;20267;-93
2022/03/19 07:55:54;;;;;;;14.40;7.97;;;6.90;99.90;;;;;;5043976;28;20214;-93
2022/03/19 07:58:21;;;;;;;15.87;8.27;;;6.90;99.90;;;;;;5043830;28;20206;-94
2022/03/19 08:01:13;;;;;;;15.93;7.93;;;7.00;99.90;;;;;;5062783;28;20467;-93
2022/03/19 08:03:45;;;;;;;18.10;7.67;;;6.40;99.90;;;;;;5040970;28;20208;-94
2022/03/19 08:06:11;;;;;;;13.60;7.70;;;7.00;99.90;;;;;;5067421;23;20215;-79
2022/03/19 08:08:37;;;;;;;16.63;7.87;;;7.20;99.90;;;;;;5081173;28;20244;-79
2022/03/19 08:11:03;;;;;;;10.27;6.97;;;7.30;99.90;;;;;;5083662;28;20171;-79
2022/03/19 08:13:29;;;;;;;10.53;7.27;;;7.30;99.90;;;;;;5067396;28;20171;-80
2022/03/19 08:15:55;;;;;;;14.93;7.50;;;7.40;99.90;;;;;;5079391;28;20198;-80
2022/03/19 08:18:21;;;;;;;15.00;6.97;;;7.50;99.90;;;;;;5061955;28;20210;-80
2022/03/19 08:20:47;;;;;;;14.63;7.17;;;7.60;99.90;;;;;;5079860;28;20170;-80
2022/03/19 08:23:15;;;;;;;11.63;6.87;;;7.70;99.90;;;;;;5061468;28;20179;-79
2022/03/19 08:25:41;;;;;;;12.07;6.40;;;7.80;99.90;;;;;;5078936;28;20171;-80
2022/03/19 08:28:07;;;;;;;13.80;7.07;;;7.90;99.90;;;;;;5079916;28;20178;-79
2022/03/19 08:30:33;;;;;;;11.33;6.73;;;7.90;99.90;;;;;;5061245;28;20183;-78
2022/03/19 08:32:59;;;;;;;13.27;6.10;;;8.00;99.90;;;;;;5061019;28;20270;-79
2022/03/19 08:35:24;;;;;;;12.43;6.63;;;8.10;99.90;;;;;;5061260;28;20233;-80
2022/03/19 08:40:15;;;;;;;12.53;6.50;;;8.20;99.90;;;;;;5080635;28;20224;-79
2022/03/19 08:40:36;;;;;;;13.60;6.40;;;8.30;99.90;;;;;;5080297;28;20171;-80
2022/03/19 08:43:01;;;;;;;12.33;6.00;;;8.40;99.90;;;;;;5080768;28;20216;-80
2022/03/19 08:45:28;;;;;;;10.33;6.23;;;8.50;99.90;;;;;;5079549;28;20250;-79
2022/03/19 08:47:53;;;;;;;12.43;6.00;;;8.60;99.90;;;;;;5079825;28;20173;-81
2022/03/19 08:50:21;;;;;;;13.23;6.07;;;8.70;99.90;;;;;;5061541;28;20265;-81
2022/03/19 08:52:46;;;;;;;10.37;5.47;;;8.80;86.40;;;;;;5080168;28;20258;-80
2022/03/19 08:55:12;;;;;;;13.07;6.00;;;8.80;99.90;;;;;;5080671;28;20230;-80
2022/03/19 08:57:37;;;;;;;13.50;6.63;;;8.90;47.60;;;;;;5063204;28;20610;-80
2022/03/19 09:00:06;;;;;;;11.87;5.30;;;9.00;11.50;;;;;;5062204;28;20195;-81
2022/03/19 09:02:32;;;;;;;11.87;5.67;;;9.00;1.00;;;;;;5061587;28;20266;-80
2022/03/19 09:04:58;;;;;;;13.33;5.67;;;9.10;1.00;;;;;;5080817;28;20177;-81
2022/03/19 09:07:23;;;;;;;13.77;5.70;;;9.10;1.00;;;;;;5079812;28;20178;-81
2022/03/19 09:09:52;;;;;;;15.90;5.17;;;9.20;1.00;;;;;;5080155;28;20680;-81
2022/03/19 09:12:22;;;;;;;10.40;5.00;;;9.20;99.90;;;;;;5080515;28;20174;-82
2022/03/19 09:14:48;;;;;;;13.33;5.60;;;9.30;99.90;;;;;;5081270;28;20170;-80
2022/03/19 09:17:13;;;;;;;11.33;4.63;;;9.40;99.90;;;;;;5062504;28;20171;-80
2022/03/19 09:19:39;;;;;;;15.50;5.53;;;9.50;1.00;;;;;;5079757;28;20195;-80
2022/03/19 09:22:05;;;;;;;7.27;4.10;;;9.60;1.00;;;;;;5079880;28;20167;-80
2022/03/19 09:24:31;;;;;;;15.13;4.77;;;9.60;1.00;;;;;;5079623;28;20171;-79
2022/03/19 09:26:56;;;;;;;13.87;4.57;;;9.70;99.90;;;;;;5086870;28;20257;-79
2022/03/19 09:29:22;;;;;;;11.33;4.77;;;9.80;1.00;;;;;;5096790;28;20179;-79
2022/03/19 09:31:47;;;;;;;6.97;4.10;;;9.90;99.90;;;;;;5093986;28;20181;-80
2022/03/19 09:34:13;;;;;;;9.87;4.40;;;9.90;99.90;;;;;;5061844;28;20182;-82
2022/03/19 09:36:40;;;;;;;14.40;4.97;;;10.00;1.00;;;;;;5080079;28;20191;-81
2022/03/19 09:39:06;;;;;;;13.67;4.53;;;10.10;1.00;;;;;;5061334;28;20195;-81
2022/03/19 09:41:31;;;;;;;8.93;3.30;;;10.20;99.90;;;;;;5078285;28;20179;-80
2022/03/19 09:43:58;;;;;;;11.03;4.30;;;10.30;1.00;;;;;;5079164;28;20167;-80
2022/03/19 09:46:24;;;;;;;15.70;3.87;;;10.30;99.90;;;;;;5078738;28;20194;-81
2022/03/19 09:48:50;;;;;;;7.63;3.60;;;10.30;1.00;;;;;;5060672;28;20202;-80
2022/03/19 09:51:17;;;;;;;6.43;3.70;;;10.30;1.00;;;;;;5079013;28;20178;-80
2022/03/19 09:53:43;;;;;;;7.57;3.50;;;10.30;1.00;;;;;;5060161;28;20186;-80
2022/03/19 09:56:10;;;;;;;12.53;3.43;;;10.30;1.00;;;;;;5078556;28;20187;-80
2022/03/19 09:58:35;;;;;;;5.53;3.17;;;10.40;1.00;;;;;;5079872;28;20179;-79
2022/03/19 10:01:07;;;;;;;6.93;3.07;;;10.50;99.90;;;;;;5083132;28;20648;-79
2022/03/19 10:03:39;;;;;;;6.90;3.10;;;10.50;99.90;;;;;;5077237;28;20175;-79
2022/03/19 10:08:57;;;;;;;6.50;2.77;;;10.60;1.00;;;;;;5078627;28;20266;-79
2022/03/19 10:11:23;;;;;;;8.47;3.10;;;10.70;1.00;;;;;;5059488;28;20175;-80
2022/03/19 10:13:50;;;;;;;6.97;2.67;;;10.80;1.00;;;;;;5059525;28;20270;-79
2022/03/19 10:16:35;;;;;;;6.17;3.00;;;10.80;1.00;;;;;;5060079;28;20195;-81
2022/03/19 10:19:04;;;;;;;10.80;3.27;;;10.80;99.90;;;;;;5059915;28;20194;-79
2022/03/19 10:21:36;;;;;;;9.40;3.00;;;10.90;1.00;;;;;;5059831;28;20178;-80
2022/03/19 10:24:01;;;;;;;5.80;2.90;;;11.00;1.00;;;;;;5078502;28;20151;-80
2022/03/19 10:26:29;;;;;;;6.93;3.10;;;10.90;99.90;;;;;;5059498;28;20186;-81
2022/03/19 10:29:06;;;;;;;5.70;2.83;;;11.00;99.90;;;;;;5077118;28;20202;-80
2022/03/19 10:31:38;;;;;;;6.97;3.07;;;11.00;99.90;;;;;;5078570;28;20521;-80
2022/03/19 10:34:05;;;;;;;6.53;2.57;;;11.10;99.90;;;;;;5063117;28;20204;-80
2022/03/19 10:36:42;;;;;;;7.27;2.43;;;11.20;99.90;;;;;;5062561;28;20689;-81
2022/03/19 10:39:27;;;;;;;4.53;2.13;;;11.20;99.90;;;;;;5080495;28;20246;-83
2022/03/19 10:41:55;;;;;;;6.03;2.53;;;11.30;2.80;;;;;;5080557;28;20181;-83
2022/03/19 10:44:24;;;;;;;7.20;2.53;;;11.30;1.00;;;;;;5080472;28;20202;-83
2022/03/19 10:46:54;;;;;;;5.53;2.20;;;11.30;1.00;;;;;;5061060;28;20179;-83
2022/03/19 10:49:23;;;;;;;6.20;2.40;;;11.40;1.00;;;;;;5077711;28;20219;-84
2022/03/19 10:51:51;;;;;;;9.40;2.00;;;11.30;1.00;;;;;;5059996;28;20194;-83
2022/03/19 10:54:17;;;;;;;5.80;2.17;;;11.40;1.00;;;;;;5077996;28;20175;-84
2022/03/19 10:56:44;;;;;;;4.20;2.23;;;11.40;1.00;;;;;;5060138;28;20198;-84
2022/03/19 10:59:10;;;;;;;3.67;1.80;;;11.50;1.00;;;;;;5077751;28;20692;-84
2022/03/19 11:01:36;;;;;;;3.50;1.90;;;11.50;99.90;;;;;;5060385;28;20189;-83
2022/03/19 11:04:04;;;;;;;4.20;2.07;;;11.50;99.90;;;;;;5077528;28;20224;-83
2022/03/19 11:06:35;;;;;;;3.20;1.97;;;11.50;1.00;;;;;;5077924;28;20190;-83
2022/03/19 11:09:06;;;;;;;6.97;2.00;;;11.60;1.00;;;;;;5077448;28;20691;-83
2022/03/19 11:11:44;;;;;;;2.63;1.50;;;11.70;99.90;;;;;;5060187;28;20194;-83
2022/03/19 11:14:13;;;;;;;4.17;2.00;;;11.70;99.90;;;;;;5059276;28;20177;-83
2022/03/19 11:16:41;;;;;;;5.70;1.90;;;11.70;99.90;;;;;;5077863;28;20278;-83
2022/03/19 11:19:08;;;;;;;3.00;1.63;;;11.70;99.90;;;;;;5059563;28;20286;-82
2022/03/19 11:21:34;;;;;;;3.63;1.50;;;11.70;99.90;;;;;;5059748;28;20690;-84
2022/03/19 11:24:23;;;;;;;2.17;1.10;;;11.70;99.90;;;;;;5060064;28;20262;-84
2022/03/19 11:26:49;;;;;;;3.87;1.60;;;11.70;99.90;;;;;;5078250;28;20624;-85
2022/03/19 11:29:16;;;;;;;4.33;1.60;;;11.70;99.90;;;;;;5060382;28;20199;-87
2022/03/19 11:31:43;;;;;;;4.63;1.57;;;11.70;99.90;;;;;;5078290;28;20171;-83
2022/03/19 11:34:19;;;;;;;2.70;1.20;;;11.60;99.90;;;;;;5059896;28;20293;-84
2022/03/19 11:36:59;;;;;;;3.33;1.30;;;11.70;99.90;;;;;;5078547;28;20174;-85
2022/03/19 11:39:25;;;;;;;4.30;1.50;;;11.80;99.90;;;;;;5078740;28;20273;-80
2022/03/19 11:41:52;;;;;;;2.70;1.40;;;11.80;99.90;;;;;;5060090;28;20205;-84
2022/03/19 11:44:20;;;;;;;2.20;1.20;;;11.70;99.90;;;;;;5060554;28;20167;-83
2022/03/19 11:47:13;;;;;;;5.50;1.17;;;11.80;99.90;;;;;;5067442;28;20235;-83
2022/03/19 11:49:53;;;;;;;5.13;1.00;;;11.80;99.90;;;;;;5059240;28;20571;-83
2022/03/19 11:52:46;;;;;;;2.60;1.00;;;11.90;99.90;;;;;;5077865;28;20163;-82
2022/03/19 11:55:13;;;;;;;2.07;1.30;;;11.90;99.90;;;;;;5077183;28;20175;-82
2022/03/19 11:58:05;;;;;;;3.00;1.07;;;11.90;99.90;;;;;;5077603;28;20641;-82
2022/03/19 12:00:33;;;;;;;1.17;0.73;;;11.90;99.90;;;;;;5077444;28;20201;-82
2022/03/19 12:03:12;;;;;;;2.07;0.93;;;12.00;99.90;;;;;;5077892;28;20254;-81
2022/03/19 12:05:48;;;;;;;1.80;1.07;;;12.00;99.90;;;;;;5076964;28;20191;-82
2022/03/19 12:08:22;;;;;;;1.20;0.97;;;12.00;99.90;;;;;;5077191;28;20232;-82
2022/03/19 12:10:59;;;;;;;4.43;1.20;;;11.90;99.90;;;;;;5059208;28;20186;-82
2022/03/19 12:13:28;;;;;;;4.50;1.33;;;12.00;99.90;;;;;;5077427;28;20162;-82
2022/03/19 12:16:02;;;;;;;2.23;1.23;;;12.00;99.90;;;;;;5076810;28;20544;-82
2022/03/19 12:18:32;;;;;;;4.00;1.30;;;12.10;99.90;;;;;;5059095;28;20187;-83
2022/03/19 12:21:04;;;;;;;2.77;1.13;;;12.00;99.90;;;;;;5058281;28;20175;-83
2022/03/19 12:23:40;;;;;;;2.27;1.80;;;12.10;99.90;;;;;;5077541;28;20168;-83
2022/03/19 12:26:08;;;;;;;4.33;1.30;;;12.10;99.90;;;;;;5061454;28;20170;-83
2022/03/19 12:28:34;;;;;;;4.67;1.30;;;12.10;99.90;;;;;;5064177;28;20289;-83
2022/03/19 12:31:12;;;;;;;4.80;1.70;;;12.10;99.90;;;;;;5082148;28;20678;-84
2022/03/19 12:33:38;;;;;;;7.37;1.70;;;12.20;99.90;;;;;;5064871;28;20178;-83
2022/03/19 12:36:19;;;;;;;3.00;1.53;;;12.30;99.90;;;;;;5075849;28;20266;-82
2022/03/19 12:38:46;;;;;;;3.53;1.30;;;12.30;99.90;;;;;;5079074;28;20170;-82
2022/03/19 12:41:31;;;;;;;6.70;1.60;;;12.30;99.90;;;;;;5081742;28;20186;-82
2022/03/19 12:43:59;;;;;;;3.43;1.33;;;12.30;99.90;;;;;;5078846;28;20504;-83
2022/03/19 12:46:25;;;;;;;3.53;1.37;;;12.40;99.90;;;;;;5062818;28;20235;-83
2022/03/19 12:48:51;;;;;;;4.10;1.43;;;12.40;99.90;;;;;;5064453;28;20641;-82
2022/03/19 12:51:27;;;;;;;5.30;1.80;;;12.30;99.90;;;;;;5082420;28;20179;-83
2022/03/19 12:53:52;;;;;;;3.20;1.30;;;12.30;99.90;;;;;;5081033;28;20644;-82
2022/03/19 12:56:20;;;;;;;4.37;1.57;;;12.20;99.90;;;;;;5063841;28;20201;-82
2022/03/19 12:58:49;;;;;;;3.10;1.10;;;12.30;99.90;;;;;;5063531;28;20207;-81
2022/03/19 13:01:17;;;;;;;2.33;1.33;;;12.30;99.90;;;;;;5062859;28;20171;-81